sensor_id;sensor_type;location;lat;lon;timestamp;temperature;humidity
78028;DHT22;67235;45.638;11.714;2023-07-20T04:56:20;30.20;59.50
78028;DHT22;67235;45.638;11.714;2023-07-20T04:58:48;30.80;58.00
78028;DHT22;67235;45.638;11.714;2023-07-20T05:01:14;31.00;58.20
78028;DHT22;67235;45.638;11.714;2023-07-20T05:03:40;31.40;58.00
78028;DHT22;67235;45.638;11.714;2023-07-20T05:06:06;31.60;55.90
78028;DHT22;67235;45.638;11.714;2023-07-20T05:08:32;32.00;53.70
78028;DHT22;67235;45.638;11.714;2023-07-20T05:10:59;32.50;52.30
78028;DHT22;67235;45.638;11.714;2023-07-20T05:13:25;32.00;54.00
78028;DHT22;67235;45.638;11.714;2023-07-20T05:15:52;32.40;53.60
78028;DHT22;67235;45.638;11.714;2023-07-20T05:18:19;32.90;52.00
78028;DHT22;67235;45.638;11.714;2023-07-20T05:20:48;33.20;50.00
78028;DHT22;67235;45.638;11.714;2023-07-20T05:23:18;33.50;49.70
78028;DHT22;67235;45.638;11.714;2023-07-20T05:25:45;33.90;47.80
78028;DHT22;67235;45.638;11.714;2023-07-20T05:28:13;34.20;46.50
78028;DHT22;67235;45.638;11.714;2023-07-20T05:30:40;34.40;46.30
78028;DHT22;67235;45.638;11.714;2023-07-20T05:33:06;34.30;45.90
78028;DHT22;67235;45.638;11.714;2023-07-20T05:35:31;34.60;44.50
78028;DHT22;67235;45.638;11.714;2023-07-20T05:38:08;34.90;43.60
78028;DHT22;67235;45.638;11.714;2023-07-20T05:40:42;35.10;41.90
78028;DHT22;67235;45.638;11.714;2023-07-20T05:43:11;35.40;41.20
78028;DHT22;67235;45.638;11.714;2023-07-20T05:45:48;35.70;41.30
78028;DHT22;67235;45.638;11.714;2023-07-20T05:48:37;35.70;40.70
78028;DHT22;67235;45.638;11.714;2023-07-20T05:51:24;35.80;40.00
78028;DHT22;67235;45.638;11.714;2023-07-20T05:53:50;35.60;40.00
78028;DHT22;67235;45.638;11.714;2023-07-20T05:56:18;35.70;41.10
78028;DHT22;67235;45.638;11.714;2023-07-20T05:58:46;36.00;40.00
78028;DHT22;67235;45.638;11.714;2023-07-20T06:01:12;37.00;40.00
78028;DHT22;67235;45.638;11.714;2023-07-20T06:03:37;37.50;38.50
78028;DHT22;67235;45.638;11.714;2023-07-20T06:06:04;38.10;37.60
78028;DHT22;67235;45.638;11.714;2023-07-20T06:08:32;38.10;38.30
78028;DHT22;67235;45.638;11.714;2023-07-20T06:10:57;38.00;36.50
78028;DHT22;67235;45.638;11.714;2023-07-20T06:13:24;38.10;37.50
78028;DHT22;67235;45.638;11.714;2023-07-20T06:15:52;37.80;36.30
78028;DHT22;67235;45.638;11.714;2023-07-20T06:18:25;38.60;37.80
78028;DHT22;67235;45.638;11.714;2023-07-20T06:20:53;39.00;36.60
78028;DHT22;67235;45.638;11.714;2023-07-20T06:23:20;39.40;34.70
78028;DHT22;67235;45.638;11.714;2023-07-20T06:25:47;39.20;35.60
78028;DHT22;67235;45.638;11.714;2023-07-20T06:28:13;39.40;34.70
78028;DHT22;67235;45.638;11.714;2023-07-20T06:30:43;39.40;35.20
78028;DHT22;67235;45.638;11.714;2023-07-20T06:33:10;39.70;34.00
78028;DHT22;67235;45.638;11.714;2023-07-20T06:35:36;39.70;34.10
78028;DHT22;67235;45.638;11.714;2023-07-20T06:38:02;39.50;35.10
78028;DHT22;67235;45.638;11.714;2023-07-20T06:40:30;39.50;35.50
78028;DHT22;67235;45.638;11.714;2023-07-20T06:42:56;39.60;35.20
78028;DHT22;67235;45.638;11.714;2023-07-20T06:45:27;39.90;35.00
78028;DHT22;67235;45.638;11.714;2023-07-20T06:54:37;38.60;35.70
78028;DHT22;67235;45.638;11.714;2023-07-20T06:57:10;38.00;37.30
78028;DHT22;67235;45.638;11.714;2023-07-20T17:41:58;31.60;55.30
78028;DHT22;67235;45.638;11.714;2023-07-20T17:44:24;31.50;52.00
78028;DHT22;67235;45.638;11.714;2023-07-20T17:46:57;31.40;52.10
78028;DHT22;67235;45.638;11.714;2023-07-20T17:49:23;31.20;53.70
78028;DHT22;67235;45.638;11.714;2023-07-20T17:51:52;31.00;52.40
78028;DHT22;67235;45.638;11.714;2023-07-20T18:32:42;29.50;65.40
78028;DHT22;67235;45.638;11.714;2023-07-20T18:35:16;29.30;63.60
78028;DHT22;67235;45.638;11.714;2023-07-20T18:37:42;29.20;62.70
78028;DHT22;67235;45.638;11.714;2023-07-20T18:40:08;29.10;59.00
78028;DHT22;67235;45.638;11.714;2023-07-20T18:45:09;29.00;59.50
78028;DHT22;67235;45.638;11.714;2023-07-20T18:47:35;28.80;60.60
78028;DHT22;67235;45.638;11.714;2023-07-20T18:50:01;28.80;61.70
78028;DHT22;67235;45.638;11.714;2023-07-20T18:52:27;28.70;63.40
78028;DHT22;67235;45.638;11.714;2023-07-20T18:54:53;28.60;63.50
78028;DHT22;67235;45.638;11.714;2023-07-20T18:57:19;28.50;62.30
78028;DHT22;67235;45.638;11.714;2023-07-20T18:59:52;28.40;64.00
78028;DHT22;67235;45.638;11.714;2023-07-20T19:02:18;28.30;65.20
78028;DHT22;67235;45.638;11.714;2023-07-20T19:04:45;28.20;66.40
78028;DHT22;67235;45.638;11.714;2023-07-20T19:07:11;28.00;64.30
78028;DHT22;67235;45.638;11.714;2023-07-20T19:09:40;27.90;66.20
78028;DHT22;67235;45.638;11.714;2023-07-20T19:12:06;27.90;68.90
78028;DHT22;67235;45.638;11.714;2023-07-20T19:14:33;27.90;69.30
78028;DHT22;67235;45.638;11.714;2023-07-20T19:16:59;27.70;68.60
78028;DHT22;67235;45.638;11.714;2023-07-20T19:19:57;27.60;69.20
78028;DHT22;67235;45.638;11.714;2023-07-20T19:22:23;27.40;69.80
78028;DHT22;67235;45.638;11.714;2023-07-20T19:24:52;27.40;70.20
78028;DHT22;67235;45.638;11.714;2023-07-20T19:27:18;27.30;71.20
78028;DHT22;67235;45.638;11.714;2023-07-20T19:29:44;27.30;71.50
78028;DHT22;67235;45.638;11.714;2023-07-20T19:32:10;27.10;71.30
78028;DHT22;67235;45.638;11.714;2023-07-20T19:34:36;27.10;70.90
78028;DHT22;67235;45.638;11.714;2023-07-20T19:37:02;27.00;72.30
78028;DHT22;67235;45.638;11.714;2023-07-20T19:39:29;27.00;72.00
78028;DHT22;67235;45.638;11.714;2023-07-20T19:41:56;27.00;72.50
78028;DHT22;67235;45.638;11.714;2023-07-20T19:44:22;26.90;73.20
78028;DHT22;67235;45.638;11.714;2023-07-20T19:46:48;26.80;73.50
78028;DHT22;67235;45.638;11.714;2023-07-20T19:49:14;26.90;72.50
78028;DHT22;67235;45.638;11.714;2023-07-20T19:51:40;26.80;73.00
78028;DHT22;67235;45.638;11.714;2023-07-20T19:54:06;26.80;72.70
78028;DHT22;67235;45.638;11.714;2023-07-20T19:56:44;26.80;71.40
78028;DHT22;67235;45.638;11.714;2023-07-20T19:59:12;26.90;71.50
78028;DHT22;67235;45.638;11.714;2023-07-20T20:01:40;26.90;72.20
78028;DHT22;67235;45.638;11.714;2023-07-20T20:04:06;26.80;72.20
78028;DHT22;67235;45.638;11.714;2023-07-20T20:06:52;26.80;71.80
78028;DHT22;67235;45.638;11.714;2023-07-20T20:10:14;26.80;71.30
78028;DHT22;67235;45.638;11.714;2023-07-20T20:19:09;26.80;70.40
78028;DHT22;67235;45.638;11.714;2023-07-20T20:21:41;26.90;69.50
78028;DHT22;67235;45.638;11.714;2023-07-20T20:24:11;26.90;70.60
78028;DHT22;67235;45.638;11.714;2023-07-20T20:26:41;26.90;70.90
78028;DHT22;67235;45.638;11.714;2023-07-20T20:29:09;26.80;70.40
78028;DHT22;67235;45.638;11.714;2023-07-20T20:31:40;26.90;71.10
78028;DHT22;67235;45.638;11.714;2023-07-20T20:34:08;26.80;70.00
78028;DHT22;67235;45.638;11.714;2023-07-20T20:36:34;26.80;71.00
78028;DHT22;67235;45.638;11.714;2023-07-20T20:39:12;26.70;72.10
78028;DHT22;67235;45.638;11.714;2023-07-20T20:41:41;26.60;71.60
78028;DHT22;67235;45.638;11.714;2023-07-20T20:44:10;26.60;72.40
78028;DHT22;67235;45.638;11.714;2023-07-20T20:47:07;26.50;73.50
78028;DHT22;67235;45.638;11.714;2023-07-20T20:49:46;26.40;73.20
78028;DHT22;67235;45.638;11.714;2023-07-20T20:52:15;26.30;73.70
78028;DHT22;67235;45.638;11.714;2023-07-20T20:54:49;26.30;72.30
78028;DHT22;67235;45.638;11.714;2023-07-20T20:57:16;26.20;71.50
78028;DHT22;67235;45.638;11.714;2023-07-20T20:59:44;26.20;71.60
78028;DHT22;67235;45.638;11.714;2023-07-20T21:02:13;26.20;71.80
78028;DHT22;67235;45.638;11.714;2023-07-20T21:04:44;26.20;71.00
78028;DHT22;67235;45.638;11.714;2023-07-20T21:07:11;26.40;70.30
78028;DHT22;67235;45.638;11.714;2023-07-20T21:09:37;26.40;70.40
78028;DHT22;67235;45.638;11.714;2023-07-20T21:12:03;26.40;70.50
78028;DHT22;67235;45.638;11.714;2023-07-20T21:14:29;26.40;71.00
78028;DHT22;67235;45.638;11.714;2023-07-20T21:16:55;26.40;70.90
78028;DHT22;67235;45.638;11.714;2023-07-20T21:19:21;26.40;70.80
78028;DHT22;67235;45.638;11.714;2023-07-20T21:21:47;26.50;69.80
78028;DHT22;67235;45.638;11.714;2023-07-20T21:24:13;26.50;69.80
78028;DHT22;67235;45.638;11.714;2023-07-20T21:26:38;26.50;68.50
78028;DHT22;67235;45.638;11.714;2023-07-20T21:29:04;26.60;69.70
78028;DHT22;67235;45.638;11.714;2023-07-20T21:31:31;26.50;69.80
78028;DHT22;67235;45.638;11.714;2023-07-20T21:33:57;26.50;70.00
78028;DHT22;67235;45.638;11.714;2023-07-20T21:36:23;26.50;69.40
78028;DHT22;67235;45.638;11.714;2023-07-20T21:38:50;26.50;69.30
78028;DHT22;67235;45.638;11.714;2023-07-20T21:41:17;26.40;69.40
78028;DHT22;67235;45.638;11.714;2023-07-20T21:43:44;26.40;70.20
78028;DHT22;67235;45.638;11.714;2023-07-20T21:46:10;26.30;70.80
78028;DHT22;67235;45.638;11.714;2023-07-20T21:48:36;26.30;70.30
78028;DHT22;67235;45.638;11.714;2023-07-20T21:51:02;26.30;69.20
78028;DHT22;67235;45.638;11.714;2023-07-20T21:53:28;26.30;69.40
78028;DHT22;67235;45.638;11.714;2023-07-20T21:55:55;26.40;71.10
78028;DHT22;67235;45.638;11.714;2023-07-20T21:58:23;26.30;71.10
78028;DHT22;67235;45.638;11.714;2023-07-20T22:00:54;26.20;70.90
78028;DHT22;67235;45.638;11.714;2023-07-20T22:03:22;26.10;70.60
78028;DHT22;67235;45.638;11.714;2023-07-20T22:05:49;26.10;69.40
78028;DHT22;67235;45.638;11.714;2023-07-20T22:08:21;26.20;68.50
78028;DHT22;67235;45.638;11.714;2023-07-20T22:10:47;26.20;69.10
78028;DHT22;67235;45.638;11.714;2023-07-20T22:13:17;26.20;68.90
78028;DHT22;67235;45.638;11.714;2023-07-20T22:15:45;26.30;69.40
78028;DHT22;67235;45.638;11.714;2023-07-20T22:18:11;26.30;69.70
78028;DHT22;67235;45.638;11.714;2023-07-20T22:20:37;26.20;70.10
78028;DHT22;67235;45.638;11.714;2023-07-20T22:23:04;26.30;68.10
78028;DHT22;67235;45.638;11.714;2023-07-20T22:25:30;26.20;70.10
78028;DHT22;67235;45.638;11.714;2023-07-20T22:27:56;26.20;69.70
78028;DHT22;67235;45.638;11.714;2023-07-20T22:30:21;26.10;69.70
78028;DHT22;67235;45.638;11.714;2023-07-20T22:32:47;26.20;69.50
78028;DHT22;67235;45.638;11.714;2023-07-20T22:35:13;26.20;69.20
78028;DHT22;67235;45.638;11.714;2023-07-20T22:37:39;26.20;69.10
78028;DHT22;67235;45.638;11.714;2023-07-20T22:40:06;26.20;69.10
78028;DHT22;67235;45.638;11.714;2023-07-20T22:42:33;26.30;69.40
78028;DHT22;67235;45.638;11.714;2023-07-20T22:45:01;26.20;69.50
78028;DHT22;67235;45.638;11.714;2023-07-20T22:47:28;26.20;69.30
78028;DHT22;67235;45.638;11.714;2023-07-20T22:49:54;26.10;69.60
78028;DHT22;67235;45.638;11.714;2023-07-20T22:52:20;26.20;69.90
78028;DHT22;67235;45.638;11.714;2023-07-20T22:54:45;26.10;70.00
78028;DHT22;67235;45.638;11.714;2023-07-20T22:57:11;26.10;70.20
78028;DHT22;67235;45.638;11.714;2023-07-20T22:59:47;26.00;70.30
78028;DHT22;67235;45.638;11.714;2023-07-20T23:02:14;26.10;70.20
78028;DHT22;67235;45.638;11.714;2023-07-20T23:04:39;26.10;70.40
78028;DHT22;67235;45.638;11.714;2023-07-20T23:07:05;26.10;70.80
78028;DHT22;67235;45.638;11.714;2023-07-20T23:09:31;26.10;70.90
78028;DHT22;67235;45.638;11.714;2023-07-20T23:11:57;26.10;71.20
78028;DHT22;67235;45.638;11.714;2023-07-20T23:14:27;26.10;71.10
78028;DHT22;67235;45.638;11.714;2023-07-20T23:16:53;26.20;71.20
78028;DHT22;67235;45.638;11.714;2023-07-20T23:19:19;26.20;71.10
78028;DHT22;67235;45.638;11.714;2023-07-20T23:21:46;26.20;71.30
78028;DHT22;67235;45.638;11.714;2023-07-20T23:24:12;26.20;71.50
78028;DHT22;67235;45.638;11.714;2023-07-20T23:26:41;26.30;71.20
78028;DHT22;67235;45.638;11.714;2023-07-20T23:29:07;26.30;71.30
78028;DHT22;67235;45.638;11.714;2023-07-20T23:31:34;26.20;71.20
78028;DHT22;67235;45.638;11.714;2023-07-20T23:34:03;26.30;71.20
78028;DHT22;67235;45.638;11.714;2023-07-20T23:36:29;26.20;71.30
78028;DHT22;67235;45.638;11.714;2023-07-20T23:38:55;26.30;71.80
78028;DHT22;67235;45.638;11.714;2023-07-20T23:41:22;26.20;71.50
78028;DHT22;67235;45.638;11.714;2023-07-20T23:43:51;26.20;71.90
78028;DHT22;67235;45.638;11.714;2023-07-20T23:46:19;26.20;72.00
78028;DHT22;67235;45.638;11.714;2023-07-20T23:48:48;26.20;72.10
78028;DHT22;67235;45.638;11.714;2023-07-20T23:51:14;26.30;72.20
78028;DHT22;67235;45.638;11.714;2023-07-20T23:53:44;26.30;71.80
78028;DHT22;67235;45.638;11.714;2023-07-20T23:56:16;26.30;72.00
78028;DHT22;67235;45.638;11.714;2023-07-20T23:58:43;26.30;72.50
